createdAt,value
2018-12-15T00:00:32.450Z,42.80
2018-12-15T00:03:01.256Z,37.50
2018-12-15T00:05:29.956Z,36.13
2018-12-15T00:07:58.800Z,37.70
2018-12-15T00:10:27.505Z,36.00
2018-12-15T00:12:56.395Z,31.97
2018-12-15T00:15:25.273Z,34.20
2018-12-15T00:17:54.164Z,36.75
2018-12-15T00:20:23.060Z,31.43
2018-12-15T00:22:51.939Z,32.77
2018-12-15T00:25:20.723Z,32.00
2018-12-15T00:27:49.510Z,32.57
2018-12-15T00:30:18.417Z,32.80
2018-12-15T00:32:47.287Z,30.60
2018-12-15T00:35:16.036Z,32.60
2018-12-15T00:37:44.975Z,31.83
2018-12-15T00:40:13.866Z,27.50
2018-12-15T00:42:42.744Z,30.33
2018-12-15T00:45:11.581Z,35.03
2018-12-15T00:47:40.426Z,28.30
2018-12-15T00:50:09.305Z,28.40
2018-12-15T00:52:38.210Z,28.03
2018-12-15T00:55:07.086Z,30.97
2018-12-15T00:57:35.886Z,28.23
2018-12-15T01:00:04.931Z,30.40
2018-12-15T01:02:33.730Z,28.75
2018-12-15T01:05:02.476Z,28.93
2018-12-15T01:07:31.637Z,29.97
2018-12-15T01:10:00.530Z,28.20
2018-12-15T01:12:29.230Z,29.90
2018-12-15T01:14:58.207Z,29.23
2018-12-15T01:17:27.190Z,28.30
2018-12-15T01:19:56.087Z,32.17
2018-12-15T01:22:24.966Z,29.53
2018-12-15T01:24:53.866Z,29.40
2018-12-15T01:27:22.668Z,31.37
2018-12-15T01:29:51.546Z,26.53
2018-12-15T01:32:20.416Z,25.30
2018-12-15T01:34:49.108Z,26.93
2018-12-15T01:37:18.208Z,28.40
2018-12-15T01:39:46.985Z,26.50
2018-12-15T01:42:15.795Z,31.33
2018-12-15T01:44:44.700Z,25.70
2018-12-15T01:47:13.410Z,28.20
2018-12-15T01:49:42.927Z,28.63
2018-12-15T01:52:11.847Z,27.80
2018-12-15T01:54:40.726Z,27.33
2018-12-15T01:57:09.833Z,28.53
2018-12-15T01:59:38.692Z,25.43
2018-12-15T02:02:07.461Z,27.93
2018-12-15T02:04:36.121Z,28.57
2018-12-15T02:07:04.967Z,27.13
2018-12-15T02:09:33.900Z,30.17
2018-12-15T02:12:02.812Z,28.10
2018-12-15T02:14:31.797Z,28.23
2018-12-15T02:17:00.587Z,26.97
2018-12-15T02:19:29.367Z,26.37
2018-12-15T02:21:58.339Z,26.63
2018-12-15T02:24:27.085Z,27.70
2018-12-15T02:26:55.842Z,31.73
2018-12-15T02:29:24.769Z,29.60
2018-12-15T02:31:53.558Z,26.67
2018-12-15T02:34:22.331Z,29.53
2018-12-15T02:36:51.228Z,26.53
2018-12-15T02:39:19.957Z,27.50
2018-12-15T02:41:48.807Z,28.07
2018-12-15T02:44:17.699Z,27.03
2018-12-15T02:46:46.474Z,27.15
2018-12-15T02:49:15.258Z,25.63
2018-12-15T02:51:44.844Z,28.00
2018-12-15T02:54:13.614Z,29.50
2018-12-15T02:56:42.393Z,28.50
2018-12-15T02:59:11.237Z,27.07
2018-12-15T03:01:40.213Z,29.33
2018-12-15T03:04:09.110Z,25.73
2018-12-15T03:06:37.992Z,27.37
2018-12-15T03:09:07.361Z,26.30
2018-12-15T03:11:36.289Z,24.47
2018-12-15T03:14:05.077Z,28.90
2018-12-15T03:16:33.812Z,24.20
2018-12-15T03:19:11.462Z,27.40
2018-12-15T03:21:40.297Z,26.70
2018-12-15T03:24:09.120Z,24.77
2018-12-15T03:26:38.019Z,26.70
2018-12-15T03:29:06.771Z,25.33
2018-12-15T03:31:35.482Z,24.77
2018-12-15T03:34:04.489Z,25.73
2018-12-15T03:36:33.260Z,26.40
2018-12-15T03:39:02.047Z,25.43
2018-12-15T03:41:30.851Z,25.00
2018-12-15T03:43:59.560Z,26.03
2018-12-15T03:46:28.317Z,25.70
2018-12-15T03:48:57.197Z,24.90
2018-12-15T03:51:25.942Z,25.30
2018-12-15T03:53:54.821Z,26.15
2018-12-15T03:56:23.550Z,26.50
2018-12-15T03:58:52.559Z,24.93
2018-12-15T04:01:21.330Z,26.73
2018-12-15T04:03:50.227Z,25.07
2018-12-15T04:06:19.011Z,27.13
2018-12-15T04:08:47.798Z,24.90
2018-12-15T04:11:16.518Z,27.10
2018-12-15T04:13:45.327Z,25.37
2018-12-15T04:16:14.149Z,27.10
2018-12-15T04:18:42.947Z,27.67
2018-12-15T04:21:11.788Z,24.97
2018-12-15T04:23:40.609Z,25.70
2018-12-15T04:26:09.373Z,25.93
2018-12-15T04:28:38.126Z,26.83
2018-12-15T04:31:06.992Z,25.60
2018-12-15T04:33:35.873Z,25.07
2018-12-15T04:36:13.378Z,23.60
2018-12-15T04:38:42.664Z,24.87
2018-12-15T04:41:11.401Z,25.10
2018-12-15T04:43:40.228Z,25.67
2018-12-15T04:46:10.391Z,25.07
2018-12-15T04:48:39.197Z,25.90
2018-12-15T04:51:08.047Z,25.80
2018-12-15T04:53:36.810Z,25.33
2018-12-15T04:56:05.587Z,23.63
2018-12-15T04:58:34.379Z,24.17
2018-12-15T05:01:03.121Z,22.33
2018-12-15T05:03:31.947Z,24.53
2018-12-15T05:06:01.148Z,25.17
2018-12-15T05:08:29.982Z,23.93
2018-12-15T05:10:58.766Z,22.93
2018-12-15T05:13:27.427Z,22.73
2018-12-15T05:15:56.130Z,24.00
2018-12-15T05:18:24.972Z,24.57
2018-12-15T05:20:53.766Z,23.17
2018-12-15T05:23:22.510Z,24.27
2018-12-15T05:25:51.267Z,24.40
2018-12-15T05:28:20.128Z,25.93
2018-12-15T05:30:49.018Z,22.53
2018-12-15T05:33:17.747Z,24.00
2018-12-15T05:35:46.681Z,23.37
2018-12-15T05:38:15.478Z,23.23
2018-12-15T05:40:44.254Z,23.80
2018-12-15T05:43:13.358Z,24.63
2018-12-15T05:45:42.148Z,22.63
2018-12-15T05:48:10.921Z,24.13
2018-12-15T05:50:39.818Z,24.70
2018-12-15T05:53:08.697Z,23.77
2018-12-15T05:55:37.457Z,24.83
2018-12-15T05:58:06.379Z,24.10
2018-12-15T06:00:35.269Z,23.27
2018-12-15T06:03:04.357Z,23.57
2018-12-15T06:05:33.351Z,23.13
2018-12-15T06:08:02.339Z,23.47
2018-12-15T06:10:31.182Z,23.27
2018-12-15T06:13:00.128Z,21.97
2018-12-15T06:15:29.191Z,23.77
2018-12-15T06:17:57.972Z,22.33
2018-12-15T06:20:26.798Z,24.03
2018-12-15T06:22:55.529Z,23.77
2018-12-15T06:25:24.469Z,22.37
2018-12-15T06:27:53.322Z,22.93
2018-12-15T06:30:22.092Z,25.93
2018-12-15T06:32:51.029Z,23.97
2018-12-15T06:35:19.823Z,25.20
2018-12-15T06:37:48.696Z,24.53
2018-12-15T06:40:17.599Z,21.67
2018-12-15T06:42:46.375Z,25.17
2018-12-15T06:45:15.259Z,22.93
2018-12-15T06:47:44.059Z,22.50
2018-12-15T06:50:12.948Z,22.83
2018-12-15T06:52:41.593Z,24.57
2018-12-15T06:55:10.457Z,22.90
2018-12-15T06:57:39.970Z,22.90
2018-12-15T07:00:09.174Z,20.47
2018-12-15T07:02:37.896Z,23.47
2018-12-15T07:05:06.783Z,27.13
2018-12-15T07:07:35.578Z,22.60
2018-12-15T07:10:05.173Z,23.03
2018-12-15T07:12:34.278Z,21.53
2018-12-15T07:15:03.268Z,23.97
2018-12-15T07:17:32.147Z,21.70
2018-12-15T07:20:00.941Z,22.43
2018-12-15T07:22:29.826Z,23.17
2018-12-15T07:24:58.997Z,24.47
2018-12-15T07:27:28.031Z,23.83
2018-12-15T07:29:57.831Z,25.77
2018-12-15T07:32:26.607Z,22.90
2018-12-15T07:35:00.903Z,24.13
2018-12-15T07:37:26.337Z,27.73
2018-12-15T07:39:55.047Z,29.20
2018-12-15T07:42:24.676Z,27.10
2018-12-15T07:44:53.534Z,25.77
2018-12-15T07:47:22.396Z,30.23
2018-12-15T07:49:51.200Z,28.73
2018-12-15T07:52:20.079Z,24.63
2018-12-15T07:54:48.917Z,24.47
2018-12-15T07:57:17.758Z,24.17
2018-12-15T07:59:46.649Z,23.27
2018-12-15T08:02:15.527Z,22.57
2018-12-15T08:04:44.892Z,34.20
2018-12-15T08:07:13.821Z,34.20
2018-12-15T08:09:42.821Z,38.90
2018-12-15T08:12:15.898Z,36.80
2018-12-15T08:14:44.797Z,37.33
2018-12-15T08:17:13.517Z,34.33
2018-12-15T08:19:42.319Z,36.10
2018-12-15T08:22:11.258Z,44.80
2018-12-15T08:24:39.991Z,40.92
2018-12-15T08:27:08.828Z,35.13
2018-12-15T08:29:37.841Z,36.00
2018-12-15T08:32:06.855Z,39.98
2018-12-15T08:34:35.717Z,36.47
2018-12-15T08:37:04.591Z,35.00
2018-12-15T08:39:33.989Z,41.37
2018-12-15T08:42:03.232Z,36.03
2018-12-15T08:44:32.367Z,34.77
2018-12-15T08:47:01.851Z,43.00
2018-12-15T08:49:30.676Z,30.77
2018-12-15T08:51:59.586Z,33.92
2018-12-15T08:54:28.648Z,39.97
2018-12-15T08:56:57.842Z,42.20
2018-12-15T08:59:26.621Z,35.13
2018-12-15T09:01:55.831Z,42.97
2018-12-15T09:04:24.717Z,36.85
2018-12-15T09:06:53.608Z,39.27
2018-12-15T09:09:22.486Z,34.50
2018-12-15T09:11:51.271Z,31.07
2018-12-15T09:14:20.067Z,37.67
2018-12-15T09:16:48.950Z,35.25
2018-12-15T09:22:11.780Z,31.47
2018-12-15T09:24:41.726Z,33.10
2018-12-15T09:27:11.957Z,33.57
2018-12-15T09:29:41.963Z,31.87
2018-12-15T09:32:11.950Z,31.90
2018-12-15T09:34:42.101Z,33.15
2018-12-15T09:37:12.001Z,32.20
2018-12-15T09:39:42.524Z,31.73
2018-12-15T09:42:12.766Z,32.67
2018-12-15T09:44:43.076Z,27.87
2018-12-15T09:47:13.031Z,29.33
2018-12-15T09:49:43.029Z,31.30
2018-12-15T09:52:13.380Z,32.77
2018-12-15T09:57:24.473Z,29.37
2018-12-15T09:59:54.547Z,35.23
2018-12-15T10:02:24.666Z,26.47
2018-12-15T10:04:54.544Z,28.70
2018-12-15T10:07:24.596Z,30.80
2018-12-15T10:09:54.711Z,31.70
2018-12-15T10:12:24.610Z,26.30
2018-12-15T10:14:54.589Z,31.03
2018-12-15T10:17:24.557Z,27.93
2018-12-15T10:19:54.567Z,29.67
2018-12-15T10:22:24.571Z,34.77
2018-12-15T10:24:54.596Z,32.10
2018-12-15T10:27:24.769Z,30.55
2018-12-15T10:29:58.721Z,27.00
2018-12-15T10:35:20.975Z,27.57
2018-12-15T10:37:51.056Z,26.97
2018-12-15T10:40:21.006Z,29.60
2018-12-15T10:42:49.880Z,25.63
2018-12-15T10:45:19.899Z,31.70
2018-12-15T10:47:50.017Z,29.70
2018-12-15T10:50:20.186Z,30.53
2018-12-15T10:52:50.258Z,28.77
2018-12-15T10:55:20.470Z,24.87
2018-12-15T10:57:50.485Z,31.67
2018-12-15T11:00:24.507Z,37.47
2018-12-15T11:02:54.930Z,32.43
2018-12-15T11:05:24.937Z,28.02
2018-12-15T11:07:54.949Z,34.27
2018-12-15T11:10:25.050Z,35.67
2018-12-15T11:12:54.902Z,33.13
2018-12-15T11:15:24.961Z,37.73
2018-12-15T11:17:55.017Z,46.13
2018-12-15T11:20:25.138Z,46.27
2018-12-15T11:22:55.041Z,50.40
2018-12-15T11:25:25.054Z,50.47
2018-12-15T11:27:55.287Z,51.10
2018-12-15T11:30:25.701Z,52.43
2018-12-15T11:32:55.751Z,53.33
2018-12-15T11:35:25.849Z,46.97
2018-12-15T11:37:55.968Z,48.13
2018-12-15T11:40:26.072Z,45.33
2018-12-15T11:42:56.007Z,51.17
2018-12-15T11:45:27.371Z,43.37
2018-12-15T11:47:57.546Z,45.03
2018-12-15T11:52:16.311Z,34.77
2018-12-15T11:54:46.351Z,33.07
2018-12-15T11:57:16.401Z,38.53
2018-12-15T11:59:46.577Z,33.67
2018-12-15T12:02:17.402Z,34.90
2018-12-15T12:04:47.432Z,39.73
2018-12-15T12:07:17.652Z,30.43
2018-12-15T12:09:47.728Z,33.67
2018-12-15T12:12:17.841Z,36.90
2018-12-15T12:14:47.785Z,31.30
2018-12-15T12:17:17.901Z,38.23
2018-12-15T12:19:50.304Z,35.17
2018-12-15T12:22:19.671Z,41.13
2018-12-15T12:24:49.699Z,35.87
2018-12-15T12:27:19.917Z,41.50
2018-12-15T12:29:50.037Z,35.00
2018-12-15T12:32:20.252Z,32.50
2018-12-15T12:34:50.367Z,36.40
2018-12-15T12:37:20.355Z,31.83
2018-12-15T12:39:50.469Z,38.33
2018-12-15T12:42:20.406Z,30.23
2018-12-15T12:44:50.738Z,29.93
2018-12-15T12:47:21.125Z,37.20
2018-12-15T12:49:56.652Z,34.90
2018-12-15T12:52:23.336Z,34.13
2018-12-15T12:54:53.359Z,32.83
2018-12-15T12:57:23.787Z,30.00
2018-12-15T12:59:53.889Z,31.87
2018-12-15T13:02:24.121Z,32.23
2018-12-15T13:04:54.238Z,29.70
2018-12-15T13:07:24.271Z,31.23
2018-12-15T13:09:54.566Z,31.83
2018-12-15T13:12:25.092Z,28.60
2018-12-15T13:14:55.024Z,32.63
2018-12-15T13:17:25.230Z,31.73
2018-12-15T13:19:55.357Z,30.53
2018-12-15T13:22:25.368Z,26.90
2018-12-15T13:24:55.341Z,29.27
2018-12-15T13:27:26.021Z,32.33
2018-12-15T13:29:56.278Z,32.33
2018-12-15T13:32:26.338Z,33.40
2018-12-15T13:34:56.464Z,31.43
2018-12-15T13:37:26.998Z,29.53
2018-12-15T13:39:57.109Z,26.03
2018-12-15T13:42:27.337Z,28.07
2018-12-15T13:44:57.768Z,30.93
2018-12-15T13:47:27.775Z,30.60
2018-12-15T13:49:58.199Z,29.50
2018-12-15T13:52:28.121Z,30.27
2018-12-15T13:54:58.711Z,28.07
2018-12-15T13:57:29.816Z,28.60
2018-12-15T14:00:00.256Z,25.83
2018-12-15T14:02:31.290Z,26.60
2018-12-15T14:05:01.370Z,29.27
2018-12-15T14:07:32.301Z,28.93
2018-12-15T14:10:02.514Z,27.10
2018-12-15T14:12:33.446Z,28.67
2018-12-15T14:15:03.888Z,25.80
2018-12-15T14:17:34.210Z,26.20
2018-12-15T14:20:04.824Z,25.40
2018-12-15T14:22:35.367Z,25.73
2018-12-15T14:25:05.685Z,27.40
2018-12-15T14:27:35.794Z,26.73
2018-12-15T14:30:07.564Z,24.67
2018-12-15T14:32:37.777Z,26.47
2018-12-15T14:35:08.513Z,26.37
2018-12-15T14:37:38.837Z,27.37
2018-12-15T14:40:09.152Z,25.93
2018-12-15T14:42:39.923Z,24.87
2018-12-15T14:45:10.007Z,25.90
2018-12-15T14:47:40.117Z,24.83
2018-12-15T14:50:10.336Z,26.17
2018-12-15T14:52:40.451Z,24.27
2018-12-15T14:55:10.980Z,26.90
2018-12-15T14:57:41.050Z,23.43
2018-12-15T15:00:11.863Z,24.70
2018-12-15T15:02:42.677Z,24.83
2018-12-15T15:05:13.189Z,24.00
2018-12-15T15:07:43.966Z,22.37
2018-12-15T15:10:14.370Z,20.47
2018-12-15T15:12:44.778Z,21.53
2018-12-15T15:15:14.896Z,21.33
2018-12-15T15:17:45.117Z,21.10
2018-12-15T15:20:15.326Z,24.27
2018-12-15T15:22:45.413Z,20.53
2018-12-15T15:25:15.578Z,22.10
2018-12-15T15:27:45.785Z,22.10
2018-12-15T15:30:16.150Z,19.33
2018-12-15T15:32:46.533Z,19.07
2018-12-15T15:35:16.883Z,37.00
2018-12-15T15:37:47.187Z,26.40
2018-12-15T15:40:17.279Z,29.53
2018-12-15T15:42:47.314Z,24.97
2018-12-15T15:45:17.418Z,34.77
2018-12-15T15:47:48.061Z,26.00
2018-12-15T15:50:18.426Z,30.40
2018-12-15T15:52:48.605Z,29.80
2018-12-15T15:55:18.615Z,32.27
2018-12-15T15:57:48.746Z,29.87
2018-12-15T16:00:19.409Z,28.80
2018-12-15T16:02:49.527Z,27.47
2018-12-15T16:05:19.596Z,26.43
2018-12-15T16:07:49.715Z,25.60
2018-12-15T16:10:20.026Z,25.67
2018-12-15T16:12:50.140Z,20.77
2018-12-15T16:15:20.285Z,24.50
2018-12-15T16:17:50.338Z,20.83
2018-12-15T16:20:20.544Z,23.90
2018-12-15T16:22:50.740Z,23.43
2018-12-15T16:25:20.960Z,28.50
2018-12-15T16:27:51.089Z,27.33
2018-12-15T16:30:21.287Z,38.33
2018-12-15T16:32:51.266Z,34.57
2018-12-15T16:35:21.837Z,39.50
2018-12-15T16:37:52.182Z,34.70
2018-12-15T16:40:22.749Z,32.57
2018-12-15T16:42:53.003Z,33.83
2018-12-15T16:45:23.120Z,35.60
2018-12-15T16:47:54.935Z,33.10
2018-12-15T16:50:24.786Z,29.33
2018-12-15T16:52:55.286Z,31.03
2018-12-15T16:55:25.677Z,29.93
2018-12-15T16:57:55.797Z,30.70
2018-12-15T17:00:26.398Z,24.30
2018-12-15T17:02:56.426Z,32.13
2018-12-15T17:05:27.147Z,22.57
2018-12-15T17:07:57.235Z,23.10
2018-12-15T17:10:27.473Z,24.10
2018-12-15T17:12:57.716Z,26.50
2018-12-15T17:15:27.856Z,23.90
2018-12-15T17:17:57.937Z,28.60
2018-12-15T17:20:28.258Z,19.67
2018-12-15T17:22:58.322Z,25.63
2018-12-15T17:25:29.751Z,21.50
2018-12-15T17:28:00.150Z,19.47
2018-12-15T17:30:30.259Z,22.33
2018-12-15T17:33:00.441Z,24.67
2018-12-15T17:38:55.307Z,27.47
2018-12-15T17:41:26.137Z,25.93
2018-12-15T17:43:56.336Z,31.27
2018-12-15T17:46:27.081Z,32.57
2018-12-15T17:48:57.747Z,30.57
2018-12-15T17:51:27.956Z,31.47
2018-12-15T17:53:58.231Z,34.27
2018-12-15T17:56:28.279Z,34.47
2018-12-15T17:58:58.397Z,32.20
2018-12-15T18:01:28.516Z,32.47
2018-12-15T18:03:58.709Z,31.63
2018-12-15T18:06:28.657Z,31.53
2018-12-15T18:08:58.877Z,32.67
2018-12-15T18:11:29.047Z,32.23
2018-12-15T18:14:00.607Z,36.80
2018-12-15T18:16:30.866Z,30.20
2018-12-15T18:19:01.176Z,36.27
2018-12-15T18:21:31.625Z,35.43
2018-12-15T18:24:01.706Z,35.67
2018-12-15T18:26:41.394Z,34.00
2018-12-15T18:29:11.831Z,34.80
2018-12-15T18:31:42.082Z,33.90
2018-12-15T18:34:13.016Z,31.57
2018-12-15T18:36:43.172Z,32.03
2018-12-15T18:39:14.690Z,37.77
2018-12-15T18:41:44.861Z,34.63
2018-12-15T18:44:18.011Z,34.27
2018-12-15T18:46:51.957Z,37.70
2018-12-15T18:49:22.358Z,40.40
2018-12-15T18:51:52.461Z,38.40
2018-12-15T18:54:22.474Z,37.43
2018-12-15T18:56:52.907Z,35.00
2018-12-15T18:59:23.253Z,33.97
2018-12-15T19:01:53.543Z,39.60
2018-12-15T19:04:25.811Z,35.70
2018-12-15T19:07:02.007Z,38.07
2018-12-15T19:09:32.966Z,38.97
2018-12-15T19:12:03.537Z,43.57
2018-12-15T19:14:33.581Z,41.43
2018-12-15T19:17:03.859Z,36.63
2018-12-15T19:19:34.400Z,41.83
2018-12-15T19:22:04.528Z,40.30
2018-12-15T19:24:34.636Z,38.30
2018-12-15T19:27:04.712Z,43.50
2018-12-15T19:29:38.066Z,42.60
2018-12-15T19:32:09.032Z,39.07
2018-12-15T19:34:43.362Z,38.47
2018-12-15T19:37:13.738Z,41.30
2018-12-15T19:39:43.915Z,43.53
2018-12-15T19:42:14.171Z,45.77
2018-12-15T19:44:48.053Z,48.43
2018-12-15T19:47:18.066Z,48.40
2018-12-15T19:49:53.133Z,49.83
2018-12-15T19:52:23.751Z,44.60
2018-12-15T19:55:01.186Z,51.00
2018-12-15T19:57:32.331Z,48.07
2018-12-15T20:00:02.386Z,47.50
2018-12-15T20:02:32.418Z,57.50
2018-12-15T20:07:51.298Z,45.40
2018-12-15T20:10:21.517Z,49.17
2018-12-15T20:12:52.689Z,51.20
2018-12-15T20:15:24.427Z,48.87
2018-12-15T20:17:54.576Z,50.37
2018-12-15T20:20:24.676Z,54.27
2018-12-15T20:22:58.620Z,52.90
2018-12-15T20:25:32.166Z,60.77
2018-12-15T20:28:02.792Z,54.20
2018-12-15T20:30:33.162Z,57.17
2018-12-15T20:33:06.391Z,51.50
2018-12-15T20:35:39.412Z,51.97
2018-12-15T20:38:10.476Z,50.30
2018-12-15T20:40:42.412Z,55.77
2018-12-15T20:43:12.921Z,58.73
2018-12-15T20:45:44.544Z,54.80
2018-12-15T20:48:15.371Z,54.13
2018-12-15T20:50:45.437Z,48.13
2018-12-15T20:53:15.627Z,50.70
2018-12-15T20:55:45.871Z,52.67
2018-12-15T20:58:16.278Z,56.23
2018-12-15T21:00:47.122Z,56.50
2018-12-15T21:03:20.253Z,48.53
2018-12-15T21:05:50.518Z,51.00
2018-12-15T21:08:21.634Z,54.30
2018-12-15T21:10:52.646Z,66.97
2018-12-15T21:13:23.055Z,50.67
2018-12-15T21:15:56.318Z,56.40
2018-12-15T21:18:33.088Z,50.07
2018-12-15T21:21:03.318Z,50.67
2018-12-15T21:23:34.036Z,55.67
2018-12-15T21:26:07.715Z,53.03
2018-12-15T21:28:37.649Z,56.17
2018-12-15T21:31:09.927Z,54.47
2018-12-15T21:33:40.032Z,53.37
2018-12-15T21:36:14.161Z,54.90
2018-12-15T21:38:44.362Z,56.20
2018-12-15T21:41:16.167Z,58.93
2018-12-15T21:43:46.136Z,52.70
2018-12-15T21:46:16.057Z,53.40
2018-12-15T21:48:47.425Z,57.17
2018-12-15T21:51:18.652Z,50.40
2018-12-15T21:53:50.031Z,50.33
2018-12-15T21:56:20.376Z,50.30
2018-12-15T21:58:50.486Z,55.87
2018-12-15T22:01:20.827Z,51.57
2018-12-15T22:03:51.178Z,50.07
2018-12-15T22:06:21.708Z,49.37
2018-12-15T22:08:52.037Z,51.73
2018-12-15T22:11:22.241Z,52.83
2018-12-15T22:13:52.203Z,44.33
2018-12-15T22:16:22.242Z,50.23
2018-12-15T22:18:52.299Z,51.27
2018-12-15T22:21:22.420Z,47.83
2018-12-15T22:23:52.351Z,54.13
2018-12-15T22:26:22.552Z,52.03
2018-12-15T22:28:52.480Z,54.93
2018-12-15T22:31:22.581Z,44.27
2018-12-15T22:33:52.511Z,56.80
2018-12-15T22:36:22.494Z,57.90
2018-12-15T22:38:52.510Z,51.83
2018-12-15T22:41:22.450Z,54.87
2018-12-15T22:43:52.562Z,51.27
2018-12-15T22:46:22.777Z,49.53
2018-12-15T22:48:52.883Z,50.90
2018-12-15T22:51:22.833Z,50.93
2018-12-15T22:53:52.912Z,54.93
2018-12-15T22:56:23.037Z,54.40
2018-12-15T22:58:53.046Z,57.20
2018-12-15T23:01:24.724Z,53.57
2018-12-15T23:03:54.796Z,57.57
2018-12-15T23:06:24.842Z,51.60
2018-12-15T23:08:54.776Z,49.27
2018-12-15T23:11:24.782Z,55.97
2018-12-15T23:13:54.973Z,57.03
2018-12-15T23:16:25.630Z,53.87
2018-12-15T23:18:55.546Z,60.33
2018-12-15T23:21:25.536Z,56.57
2018-12-15T23:23:55.440Z,51.07
2018-12-15T23:26:25.478Z,53.07
2018-12-15T23:28:55.375Z,52.03
2018-12-15T23:31:25.352Z,52.23
2018-12-15T23:33:55.417Z,51.00
2018-12-15T23:36:25.525Z,61.67
2018-12-15T23:38:55.567Z,59.47
2018-12-15T23:41:25.716Z,55.00
2018-12-15T23:43:55.577Z,55.73
2018-12-15T23:46:25.686Z,55.90
2018-12-15T23:48:55.717Z,54.37
2018-12-15T23:51:25.716Z,54.50
2018-12-15T23:53:55.747Z,56.20
2018-12-15T23:56:25.766Z,51.77
2018-12-15T23:58:55.681Z,53.37
